Aviation Digital Data Service (ADDS)

Output produced by METARs form (0215 UTC 20 January 2022)
found at http://www.aviationweather.gov/metar/data/
 
METAR text: KLMO 200154Z AUTO 00000KT 4SM BR OVC007 M06/M07 A3035 RMK AO2 T10571072
Conditions at: KLMO (LONGMONT/VBRAND , CO, US) observed 0154 UTC 20 January 2022
Temperature: -5.7°C (22°F)
Dewpoint: -7.2°C (19°F) [RH = 89%]
Pressure (altimeter): 30.35 inches Hg (1027.9 mb)
Winds: calm
Visibility: 4 miles ( 6 km)
Ceiling: 700 feet AGL
Clouds: overcast cloud deck at 700 feet AGL
Weather: BR  (mist)

METAR text: KLMO 200134Z AUTO 00000KT 4SM BR OVC007 M06/M07 A3035 RMK AO2 T10571072
Conditions at: KLMO (LONGMONT/VBRAND , CO, US) observed 0134 UTC 20 January 2022
Temperature: -5.7°C (22°F)
Dewpoint: -7.2°C (19°F) [RH = 89%]
Pressure (altimeter): 30.35 inches Hg (1027.9 mb)
Winds: calm
Visibility: 4 miles ( 6 km)
Ceiling: 700 feet AGL
Clouds: overcast cloud deck at 700 feet AGL
Weather: BR  (mist)